EDT,Max TemperatureF,Mean TemperatureF,Min TemperatureF,Max Dew PointF,MeanDew PointF,Min DewpointF,Max Humidity, Mean Humidity, Min Humidity, Max Sea Level PressureIn, Mean Sea Level PressureIn, Min Sea Level PressureIn, Max VisibilityMiles, Mean VisibilityMiles, Min VisibilityMiles, Max Wind SpeedMPH, Mean Wind SpeedMPH, Max Gust SpeedMPH,PrecipitationIn, CloudCover, Events, WindDirDegrees
2013-3-1,48,40,33,34,30,28,81,64,46,29.89,29.83,29.79,10,10,10,12,7,17,0.00,6,,289
2013-3-2,41,39,37,30,28,27,70,64,57,29.90,29.87,29.83,10,10,10,10,4,,0.00,8,,316
2013-3-3,44,38,32,30,23,21,87,58,39,29.93,29.87,29.81,10,10,10,14,5,20,0.00,5,,319
2013-3-4,48,38,28,25,20,16,75,53,29,30.06,30.00,29.93,10,10,10,17,6,23,0.00,0,,289
2013-3-5,53,40,26,41,28,21,100,67,32,30.12,29.99,29.69,10,10,5,14,3,20,0.16,4,Rain,101
2013-3-6,48,42,35,48,39,36,100,95,81,29.88,29.55,29.35,10,7,0,24,13,37,0.64,8,Fog-Rain-Snow-Thunderstorm,306
2013-3-7,51,45,39,36,31,28,81,61,41,30.15,30.05,29.89,10,10,10,21,13,30,0.00,4,Rain,320
2013-3-8,50,42,35,30,29,27,75,59,46,30.22,30.15,30.09,10,10,10,22,10,33,0.00,2,,315
2013-3-9,60,46,33,32,29,21,87,56,23,30.32,30.27,30.22,10,10,7,12,6,17,0.00,0,,349
2013-3-10,64,46,28,45,32,19,100,67,19,30.34,30.30,30.26,10,9,2,9,2,,0.00,0,,95
2013-3-11,69,53,37,54,48,37,100,79,49,30.29,30.15,30.03,10,8,0,16,5,23,0.00,3,Fog,149
2013-3-12,69,62,55,64,58,48,100,88,73,30.02,29.86,29.73,10,10,7,16,9,23,0.39,5,Rain,176
2013-3-13,55,46,37,46,33,27,93,57,33,30.06,29.99,29.91,10,10,10,20,7,26,0.00,2,,296
2013-3-14,51,40,30,25,21,18,69,46,28,30.19,30.11,30.06,10,10,10,18,8,24,0.00,0,,290
2013-3-15,59,46,33,37,29,19,75,41,26,30.15,29.97,29.88,10,10,10,17,7,25,0.00,0,,225
2013-3-16,75,62,48,57,47,34,100,67,41,29.90,29.78,29.62,10,9,0,12,7,28,0.14,3,Fog-Rain-Thunderstorm,214
2013-3-17,53,46,39,54,40,36,100,88,76,30.26,30.10,29.82,10,8,0,17,7,17,0.00,7,Fog,42
2013-3-18,46,42,37,46,43,37,100,99,93,30.25,30.12,29.89,10,3,0,14,7,18,0.07,8,Fog-Rain,36
2013-3-19,64,53,42,46,40,16,100,71,22,29.97,29.84,29.78,10,7,1,16,5,22,0.02,4,Rain,271
2013-3-20,53,45,37,32,20,14,75,37,22,30.09,29.97,29.82,10,10,10,13,6,22,0.00,0,,242
2013-3-21,42,37,30,32,28,18,93,74,52,29.94,29.78,29.70,10,9,2,16,4,21,0.01,4,Rain-Snow,330
2013-3-22,51,36,21,25,18,16,86,50,24,30.06,29.98,29.93,10,10,10,17,5,23,0.00,0,,264
2013-3-23,55,40,26,36,27,21,87,62,29,30.06,30.00,29.92,10,10,10,10,1,16,0.00,2,,262
2013-3-24,44,37,30,39,36,30,100,92,66,29.98,29.80,29.59,10,8,2,18,5,30,0.86,4,Rain-Snow,40
2013-3-25,46,40,35,37,36,34,100,89,62,29.74,29.58,29.48,10,8,2,24,7,32,0.09,7,Rain-Snow,282
2013-3-26,50,40,30,36,32,27,100,70,47,30.03,29.88,29.75,10,10,10,15,5,21,0.00,4,,279
2013-3-27,53,43,33,32,28,25,81,57,35,30.16,30.09,30.03,10,10,10,16,7,22,0.00,3,,285
2013-3-28,53,42,30,30,28,25,86,55,35,30.25,30.17,30.12,10,10,10,17,6,23,0.00,2,,296
2013-3-29,57,44,30,36,30,27,93,64,33,30.30,30.24,30.18,10,10,10,16,2,18,0.00,4,,317
2013-3-30,64,48,32,39,33,28,100,61,26,30.23,30.19,30.13,10,10,7,12,2,17,0.00,1,,247
2013-3-31,64,55,46,57,48,36,100,79,62,30.16,29.95,29.81,10,10,7,13,5,20,0.30,3,Rain,167